Wetterdaten: Woche 16.11.15 - 22.11.15 (KW47)
Datum Zeit Temp. A. Feuchte A. Luftdruck Regen Wind Richtung Taupunkt Windchill Windben
16.11.2015 00:00 15,7 C 62 % 1011,8 hPa 0,3 l/m 21,6 km/h N 8,4 C 10,3 C 49,1 km/h
16.11.2015 01:00 15,7 C 60 % 1012,1 hPa 0,0 l/m 18,9 km/h N 7,9 C 10,9 C 43,0 km/h
16.11.2015 02:00 15,4 C 60 % 1012,6 hPa 0,0 l/m 15,5 km/h N 7,6 C 11,5 C 36,6 km/h
16.11.2015 03:00 14,2 C 67 % 1013,3 hPa 0,0 l/m 17,8 km/h N 8,1 C 9,4 C 43,9 km/h
16.11.2015 04:00 12,9 C 75 % 1013,5 hPa 0,5 l/m 15,0 km/h N 8,5 C 8,7 C 35,0 km/h
16.11.2015 05:00 13,8 C 70 % 1013,6 hPa 0,0 l/m 13,3 km/h N 8,3 C 10,3 C 34,6 km/h
16.11.2015 06:00 14,8 C 61 % 1013,9 hPa 0,0 l/m 13,6 km/h N 7,3 C 11,4 C 32,2 km/h
16.11.2015 08:00 14,9 C 59 % 1014,0 hPa 0,0 l/m 14,7 km/h N 7,0 C 11,2 C 29,0 km/h
16.11.2015 10:00 15,7 C 55 % 1015,0 hPa 0,0 l/m 20,9 km/h N 6,7 C 10,4 C 22,5 km/h
16.11.2015 12:00 16,1 C 56 % 1015,0 hPa 0,0 l/m 14,5 km/h N 7,3 C 12,7 C 17,7 km/h
16.11.2015 13:00 18,3 C 37 % 1014,2 hPa 0,0 l/m 20,9 km/h N 3,4 C 13,8 C 27,4 km/h
16.11.2015 14:00 18,4 C 33 % 1014,3 hPa 0,0 l/m 16,2 km/h N 1,6 C 15,0 C 30,6 km/h
16.11.2015 15:00 18,1 C 32 % 1014,7 hPa 0,0 l/m 8,9 km/h N 1,3 C 16,9 C 25,3 km/h
16.11.2015 16:00 17,5 C 41 % 1014,6 hPa 0,0 l/m 2,4 km/h N 4,0 C 17,5 C 14,1 km/h
16.11.2015 17:00 16,5 C 50 % 1014,8 hPa 0,0 l/m 0,9 km/h N 6,0 C 16,5 C 7,3 km/h
16.11.2015 18:00 13,4 C 59 % 1015,1 hPa 0,0 l/m 0,0 km/h N 5,5 C 13,4 C 0,8 km/h
16.11.2015 19:00 11,3 C 67 % 1015,4 hPa 0,0 l/m 0,1 km/h N 5,3 C 11,3 C 0,8 km/h
16.11.2015 20:00 9,4 C 73 % 1015,6 hPa 0,0 l/m 0,1 km/h N 4,7 C 9,4 C 0,8 km/h
16.11.2015 21:00 8,0 C 78 % 1015,8 hPa 0,0 l/m 0,1 km/h N 4,4 C 8,0 C 1,6 km/h
16.11.2015 22:00 7,0 C 81 % 1015,6 hPa 0,0 l/m 0,2 km/h N 4,0 C 7,0 C 3,2 km/h
16.11.2015 23:00 6,7 C 82 % 1015,8 hPa 0,0 l/m 0,6 km/h N 3,9 C 6,7 C 5,6 km/h
17.11.2015 00:00 9,4 C 79 % 1015,6 hPa 0,0 l/m 2,0 km/h N 5,8 C 9,4 C 10,1 km/h
17.11.2015 01:00 16,1 C 52 % 1015,2 hPa 0,0 l/m 5,8 km/h N 6,1 C 16,0 C 21,3 km/h
17.11.2015 02:00 16,3 C 48 % 1015,0 hPa 0,0 l/m 9,3 km/h N 5,3 C 14,9 C 25,8 km/h
17.11.2015 03:00 16,1 C 48 % 1015,3 hPa 0,0 l/m 10,2 km/h N 5,1 C 14,3 C 28,2 km/h
17.11.2015 04:00 15,7 C 49 % 1015,4 hPa 0,0 l/m 8,7 km/h N 4,9 C 14,5 C 25,3 km/h
17.11.2015 05:00 15,1 C 51 % 1015,3 hPa 0,0 l/m 6,7 km/h N 4,9 C 14,7 C 22,1 km/h
17.11.2015 06:00 14,9 C 51 % 1014,9 hPa 0,0 l/m 3,6 km/h N 4,9 C 14,9 C 19,7 km/h
17.11.2015 07:00 14,4 C 54 % 1015,1 hPa 0,0 l/m 0,2 km/h N 5,0 C 14,4 C 2,4 km/h
17.11.2015 08:00 12,6 C 63 % 1015,4 hPa 0,0 l/m 0,0 km/h N 5,6 C 12,6 C 0,4 km/h
17.11.2015 09:00 14,3 C 54 % 1015,3 hPa 0,0 l/m 1,7 km/h N 4,9 C 14,3 C 13,3 km/h
17.11.2015 10:00 16,1 C 48 % 1015,7 hPa 0,0 l/m 1,8 km/h N 5,2 C 16,1 C 10,4 km/h
17.11.2015 11:00 14,9 C 56 % 1015,6 hPa 0,0 l/m 0,0 km/h N 6,2 C 14,9 C 1,2 km/h
17.11.2015 12:00 13,9 C 60 % 1015,2 hPa 0,0 l/m 2,2 km/h N 6,2 C 13,8 C 8,9 km/h
17.11.2015 13:00 16,8 C 49 % 1014,0 hPa 0,0 l/m 1,8 km/h N 6,1 C 16,8 C 8,5 km/h
17.11.2015 14:00 16,7 C 53 % 1014,1 hPa 0,0 l/m 0,8 km/h N 6,9 C 16,7 C 5,6 km/h
17.11.2015 15:00 16,8 C 50 % 1014,0 hPa 0,0 l/m 7,4 km/h N 6,2 C 16,0 C 25,4 km/h
17.11.2015 16:00 16,4 C 53 % 1014,5 hPa 0,0 l/m 7,8 km/h N 6,8 C 15,7 C 24,9 km/h
17.11.2015 17:00 15,3 C 62 % 1014,8 hPa 0,0 l/m 4,4 km/h N 7,9 C 15,3 C 21,7 km/h
17.11.2015 18:00 15,0 C 64 % 1015,1 hPa 0,0 l/m 2,2 km/h N 8,2 C 15,0 C 10,1 km/h
17.11.2015 19:00 13,9 C 68 % 1015,4 hPa 0,0 l/m 0,1 km/h N 8,1 C 13,9 C 2,8 km/h
17.11.2015 20:00 13,6 C 73 % 1015,1 hPa 0,0 l/m 0,6 km/h N 8,8 C 13,6 C 7,6 km/h
17.11.2015 21:00 14,5 C 72 % 1014,7 hPa 0,0 l/m 0,6 km/h N 9,4 C 14,5 C 5,2 km/h
17.11.2015 22:00 14,9 C 70 % 1014,4 hPa 0,0 l/m 0,7 km/h N 9,5 C 14,9 C 4,0 km/h
17.11.2015 23:00 14,4 C 70 % 1014,2 hPa 0,0 l/m 0,1 km/h N 9,0 C 14,4 C 2,0 km/h
18.11.2015 00:00 12,8 C 76 % 1013,5 hPa 0,0 l/m 0,1 km/h N 8,6 C 12,8 C 3,2 km/h
18.11.2015 01:00 14,4 C 72 % 1013,1 hPa 0,0 l/m 1,4 km/h N 9,4 C 14,4 C 12,4 km/h
18.11.2015 02:00 16,2 C 64 % 1012,6 hPa 0,0 l/m 0,9 km/h N 9,4 C 16,2 C 7,3 km/h
18.11.2015 03:00 14,9 C 70 % 1012,1 hPa 0,3 l/m 1,7 km/h N 9,6 C 14,9 C 9,3 km/h
18.11.2015 04:00 15,1 C 73 % 1011,3 hPa 0,0 l/m 1,2 km/h N 10,2 C 15,1 C 9,6 km/h
18.11.2015 05:00 16,6 C 64 % 1009,9 hPa 0,0 l/m 2,5 km/h N 9,8 C 16,6 C 15,7 km/h
18.11.2015 06:00 18,0 C 59 % 1009,8 hPa 0,0 l/m 10,5 km/h N 9,8 C 16,5 C 33,4 km/h
18.11.2015 07:00 18,2 C 56 % 1010,5 hPa 0,0 l/m 16,9 km/h N 9,3 C 14,6 C 44,7 km/h
18.11.2015 08:00 18,1 C 55 % 1011,2 hPa 0,0 l/m 15,3 km/h N 8,8 C 14,9 C 45,8 km/h
18.11.2015 09:00 18,2 C 54 % 1011,8 hPa 0,0 l/m 20,0 km/h N 8,8 C 13,9 C 48,3 km/h
18.11.2015 10:00 18,7 C 50 % 1012,3 hPa 0,0 l/m 15,1 km/h N 8,1 C 15,7 C 40,3 km/h
18.11.2015 11:00 19,3 C 46 % 1012,8 hPa 0,0 l/m 17,7 km/h N 7,3 C 15,7 C 45,9 km/h
18.11.2015 12:00 19,2 C 47 % 1013,3 hPa 0,0 l/m 20,3 km/h N 7,5 C 15,1 C 47,5 km/h
18.11.2015 13:00 18,8 C 46 % 1013,7 hPa 0,0 l/m 21,2 km/h N 6,8 C 14,5 C 52,3 km/h
18.11.2015 14:00 18,5 C 46 % 1013,9 hPa 0,0 l/m 21,1 km/h N 6,7 C 14,1 C 49,1 km/h
18.11.2015 15:00 18,1 C 48 % 1014,2 hPa 0,0 l/m 20,8 km/h N 6,9 C 13,6 C 44,7 km/h
18.11.2015 16:00 17,4 C 51 % 1014,9 hPa 0,0 l/m 18,3 km/h N 7,0 C 13,2 C 39,0 km/h
18.11.2015 17:00 16,7 C 53 % 1015,9 hPa 0,0 l/m 12,1 km/h N 6,9 C 14,2 C 31,4 km/h
18.11.2015 18:00 16,0 C 55 % 1017,0 hPa 0,0 l/m 5,8 km/h N 7,0 C 15,7 C 22,9 km/h
18.11.2015 19:00 15,1 C 57 % 1017,8 hPa 0,0 l/m 1,3 km/h N 6,7 C 15,1 C 9,7 km/h
18.11.2015 20:00 13,8 C 61 % 1018,3 hPa 0,0 l/m 0,6 km/h N 6,3 C 13,8 C 6,0 km/h
18.11.2015 21:00 14,3 C 58 % 1018,1 hPa 0,0 l/m 1,8 km/h N 6,2 C 14,3 C 8,9 km/h
18.11.2015 22:00 12,5 C 64 % 1017,7 hPa 0,0 l/m 0,4 km/h N 5,9 C 12,5 C 4,8 km/h
18.11.2015 23:00 10,8 C 66 % 1017,8 hPa 0,0 l/m 0,0 km/h N 4,8 C 10,8 C 0,4 km/h
19.11.2015 00:00 7,9 C 76 % 1018,2 hPa 0,0 l/m 0,1 km/h N 3,9 C 7,9 C 3,2 km/h
19.11.2015 01:00 11,6 C 69 % 1017,8 hPa 0,0 l/m 1,5 km/h N 6,1 C 11,6 C 12,1 km/h
19.11.2015 02:00 12,9 C 59 % 1017,4 hPa 0,0 l/m 1,0 km/h N 5,1 C 12,9 C 9,3 km/h
19.11.2015 03:00 10,5 C 63 % 1017,2 hPa 0,0 l/m 0,3 km/h N 3,6 C 10,5 C 4,8 km/h
19.11.2015 04:00 14,3 C 46 % 1016,9 hPa 0,0 l/m 5,1 km/h N 2,7 C 14,3 C 22,9 km/h
19.11.2015 05:00 15,4 C 46 % 1016,8 hPa 0,0 l/m 6,2 km/h N 3,7 C 14,9 C 27,0 km/h
19.11.2015 06:00 15,6 C 49 % 1017,0 hPa 0,0 l/m 8,6 km/h N 4,8 C 14,4 C 29,0 km/h
19.11.2015 07:00 15,5 C 51 % 1017,0 hPa 0,0 l/m 3,5 km/h N 5,5 C 15,5 C 20,5 km/h
19.11.2015 08:00 15,7 C 53 % 1016,9 hPa 0,0 l/m 0,8 km/h N 6,1 C 15,7 C 9,3 km/h
19.11.2015 09:00 16,8 C 52 % 1016,9 hPa 0,0 l/m 1,4 km/h N 6,8 C 16,8 C 10,9 km/h
19.11.2015 10:00 17,8 C 50 % 1016,7 hPa 0,0 l/m 9,1 km/h N 7,3 C 16,5 C 29,0 km/h
19.11.2015 11:00 17,6 C 53 % 1016,6 hPa 0,0 l/m 9,3 km/h N 7,9 C 16,4 C 27,4 km/h
19.11.2015 12:00 17,5 C 51 % 1016,6 hPa 0,0 l/m 13,9 km/h N 7,2 C 14,5 C 37,4 km/h
19.11.2015 13:00 17,6 C 51 % 1016,0 hPa 0,0 l/m 9,3 km/h N 7,3 C 16,3 C 31,8 km/h
19.11.2015 14:00 17,7 C 49 % 1015,4 hPa 0,0 l/m 9,7 km/h N 6,8 C 16,3 C 27,8 km/h
19.11.2015 15:00 17,3 C 51 % 1015,6 hPa 0,0 l/m 6,1 km/h N 6,9 C 16,8 C 22,1 km/h
19.11.2015 16:00 16,4 C 54 % 1015,7 hPa 0,0 l/m 0,9 km/h N 7,0 C 16,4 C 7,2 km/h
19.11.2015 17:00 15,7 C 56 % 1015,3 hPa 0,0 l/m 2,4 km/h N 6,8 C 15,7 C 15,7 km/h
19.11.2015 18:00 15,5 C 55 % 1015,3 hPa 0,0 l/m 2,0 km/h N 6,5 C 15,5 C 14,5 km/h
19.11.2015 19:00 14,9 C 57 % 1015,1 hPa 0,0 l/m 0,4 km/h N 6,5 C 14,9 C 6,4 km/h
19.11.2015 20:00 13,5 C 62 % 1014,6 hPa 0,0 l/m 0,2 km/h N 6,3 C 13,5 C 3,6 km/h
19.11.2015 21:00 13,7 C 61 % 1014,0 hPa 0,0 l/m 1,1 km/h N 6,2 C 13,7 C 10,5 km/h
19.11.2015 22:00 14,9 C 59 % 1012,5 hPa 0,0 l/m 1,5 km/h N 6,9 C 14,9 C 10,5 km/h
19.11.2015 23:00 16,2 C 55 % 1011,3 hPa 0,0 l/m 3,0 km/h N 7,2 C 16,2 C 16,5 km/h
20.11.2015 00:00 17,4 C 52 % 1010,1 hPa 0,0 l/m 6,9 km/h N 7,4 C 16,8 C 21,7 km/h
20.11.2015 01:00 17,3 C 55 % 1008,9 hPa 0,0 l/m 5,9 km/h N 8,1 C 17,2 C 20,9 km/h
20.11.2015 02:00 15,7 C 63 % 1008,0 hPa 0,0 l/m 2,1 km/h N 8,6 C 15,7 C 14,5 km/h
20.11.2015 03:00 15,4 C 67 % 1007,2 hPa 0,0 l/m 1,4 km/h N 9,1 C 15,4 C 12,1 km/h
20.11.2015 04:00 17,4 C 58 % 1006,6 hPa 0,0 l/m 7,0 km/h N 8,9 C 16,6 C 27,0 km/h
20.11.2015 05:00 16,8 C 58 % 1007,4 hPa 0,0 l/m 15,0 km/h N 8,3 C 13,5 C 38,2 km/h
20.11.2015 06:00 12,4 C 73 % 1009,1 hPa 0,0 l/m 7,8 km/h N 7,6 C 11,5 C 20,1 km/h
20.11.2015 07:00 11,2 C 79 % 1009,8 hPa 0,0 l/m 1,9 km/h N 7,6 C 11,2 C 8,4 km/h
20.11.2015 08:00 11,1 C 80 % 1010,5 hPa 0,5 l/m 0,3 km/h N 7,8 C 11,1 C 3,6 km/h
20.11.2015 09:00 11,1 C 82 % 1010,5 hPa 0,5 l/m 0,1 km/h N 8,0 C 11,1 C 1,2 km/h
20.11.2015 10:00 10,3 C 82 % 1010,2 hPa 0,0 l/m 2,5 km/h N 7,4 C 10,3 C 8,5 km/h
20.11.2015 11:00 9,5 C 82 % 1009,1 hPa 0,5 l/m 4,0 km/h N 6,6 C 9,5 C 12,5 km/h
20.11.2015 12:00 8,9 C 82 % 1008,4 hPa 0,0 l/m 2,7 km/h N 6,0 C 8,9 C 8,9 km/h
20.11.2015 13:00 8,6 C 82 % 1007,2 hPa 0,0 l/m 2,2 km/h N 5,8 C 8,6 C 6,8 km/h
20.11.2015 14:00 8,8 C 82 % 1006,0 hPa 1,0 l/m 0,3 km/h N 5,9 C 8,8 C 2,0 km/h
20.11.2015 15:00 8,4 C 82 % 1004,4 hPa 1,0 l/m 0,1 km/h N 5,6 C 8,4 C 2,8 km/h
20.11.2015 16:00 8,3 C 82 % 1002,8 hPa 1,0 l/m 0,1 km/h N 5,4 C 8,3 C 2,8 km/h
20.11.2015 17:00 8,3 C 82 % 1001,0 hPa 0,8 l/m 0,0 km/h N 5,4 C 8,3 C 0,8 km/h
20.11.2015 18:00 8,4 C 81 % 999,6 hPa 0,3 l/m 0,1 km/h N 5,4 C 8,4 C 0,8 km/h
20.11.2015 19:00 8,5 C 81 % 997,4 hPa 0,3 l/m 0,0 km/h N 5,4 C 8,5 C 0,0 km/h
20.11.2015 20:00 8,5 C 81 % 995,8 hPa 0,0 l/m 0,1 km/h N 5,4 C 8,5 C 0,8 km/h
20.11.2015 21:00 8,7 C 81 % 995,2 hPa 0,3 l/m 0,7 km/h N 5,6 C 8,7 C 4,0 km/h
20.11.2015 22:00 8,9 C 80 % 995,0 hPa 0,0 l/m 2,2 km/h N 5,6 C 8,9 C 7,6 km/h
20.11.2015 23:00 8,3 C 81 % 995,2 hPa 0,3 l/m 4,9 km/h N 5,2 C 8,3 C 13,3 km/h
21.11.2015 00:00 7,7 C 82 % 995,3 hPa 0,3 l/m 6,5 km/h N 4,8 C 7,4 C 17,3 km/h
21.11.2015 01:00 7,2 C 83 % 995,9 hPa 0,3 l/m 6,0 km/h N 4,5 C 6,9 C 15,7 km/h
21.11.2015 02:00 6,5 C 83 % 996,7 hPa 1,0 l/m 4,0 km/h N 3,8 C 6,5 C 12,1 km/h
21.11.2015 03:00 5,8 C 83 % 996,9 hPa 1,3 l/m 7,7 km/h N 3,2 C 4,8 C 20,9 km/h
21.11.2015 04:00 5,2 C 83 % 997,1 hPa 0,8 l/m 8,1 km/h N 2,5 C 3,1 C 20,1 km/h
21.11.2015 05:00 4,8 C 83 % 997,1 hPa 0,0 l/m 5,2 km/h N 2,2 C 4,8 C 15,7 km/h
21.11.2015 06:00 5,0 C 83 % 997,3 hPa 0,0 l/m 4,2 km/h N 2,3 C 5,0 C 15,7 km/h
21.11.2015 07:00 5,3 C 83 % 997,3 hPa 0,0 l/m 6,2 km/h N 2,6 C 5,2 C 16,9 km/h
21.11.2015 08:00 5,3 C 81 % 997,9 hPa 0,0 l/m 6,6 km/h N 2,4 C 4,8 C 17,3 km/h
21.11.2015 09:00 5,4 C 80 % 997,6 hPa 0,0 l/m 5,3 km/h N 2,2 C 5,4 C 16,1 km/h
21.11.2015 10:00 5,5 C 79 % 997,8 hPa 0,0 l/m 4,2 km/h N 2,1 C 5,5 C 13,3 km/h
21.11.2015 11:00 5,7 C 80 % 997,3 hPa 0,0 l/m 3,0 km/h N 2,4 C 5,7 C 10,5 km/h
21.11.2015 12:00 5,9 C 77 % 996,9 hPa 0,0 l/m 5,3 km/h N 2,2 C 5,9 C 13,7 km/h
21.11.2015 13:00 5,9 C 76 % 996,3 hPa 0,0 l/m 5,4 km/h N 2,1 C 5,9 C 10,9 km/h
21.11.2015 14:00 5,8 C 78 % 996,0 hPa 0,0 l/m 4,7 km/h N 2,2 C 5,8 C 10,9 km/h
21.11.2015 15:00 5,5 C 79 % 995,8 hPa 0,0 l/m 1,5 km/h N 2,0 C 5,5 C 5,6 km/h
21.11.2015 16:00 5,2 C 79 % 996,2 hPa 0,0 l/m 4,2 km/h N 1,9 C 5,2 C 11,7 km/h
21.11.2015 17:00 5,0 C 79 % 995,6 hPa 0,0 l/m 3,8 km/h N 1,7 C 5,0 C 10,9 km/h
21.11.2015 18:00 4,8 C 79 % 995,5 hPa 0,0 l/m 2,3 km/h N 1,5 C 4,8 C 7,6 km/h
21.11.2015 19:00 4,6 C 80 % 996,1 hPa 0,0 l/m 4,0 km/h N 1,4 C 4,6 C 10,1 km/h
21.11.2015 20:00 4,5 C 80 % 996,1 hPa 0,0 l/m 5,3 km/h N 1,4 C 4,5 C 15,3 km/h
21.11.2015 21:00 4,3 C 81 % 996,4 hPa 0,0 l/m 5,6 km/h N 1,3 C 4,3 C 14,9 km/h
21.11.2015 22:00 4,3 C 80 % 996,8 hPa 0,0 l/m 5,5 km/h N 1,1 C 4,3 C 13,3 km/h
21.11.2015 23:00 4,1 C 80 % 996,7 hPa 0,0 l/m 6,4 km/h N 1,0 C 3,8 C 16,1 km/h
22.11.2015 00:00 4,0 C 80 % 997,0 hPa 0,0 l/m 5,5 km/h N 0,9 C 3,9 C 14,9 km/h
22.11.2015 01:00 3,8 C 81 % 997,2 hPa 0,0 l/m 6,8 km/h N 0,8 C 3,3 C 16,1 km/h
22.11.2015 02:00 4,0 C 79 % 997,7 hPa 0,0 l/m 8,4 km/h N 0,7 C 2,2 C 20,1 km/h
22.11.2015 03:00 4,1 C 78 % 998,0 hPa 0,0 l/m 6,6 km/h N 0,6 C 3,8 C 16,9 km/h
22.11.2015 04:00 3,9 C 79 % 998,0 hPa 0,0 l/m 7,6 km/h N 0,5 C 2,9 C 18,1 km/h
22.11.2015 05:00 3,4 C 79 % 998,3 hPa 0,0 l/m 7,8 km/h N 0,1 C 2,2 C 20,5 km/h
22.11.2015 06:00 3,3 C 79 % 999,0 hPa 0,0 l/m 6,9 km/h N -0,0 C 2,5 C 19,7 km/h
22.11.2015 07:00 3,4 C 77 % 999,7 hPa 0,0 l/m 11,4 km/h N -0,3 C -0,6 C 25,7 km/h
22.11.2015 08:00 3,5 C 74 % 1000,0 hPa 0,3 l/m 11,9 km/h N -0,7 C -0,9 C 27,0 km/h
22.11.2015 09:00 3,8 C 73 % 1000,7 hPa 0,0 l/m 11,5 km/h N -0,7 C -0,2 C 25,3 km/h
22.11.2015 10:00 4,2 C 69 % 1001,4 hPa 0,0 l/m 14,6 km/h N -1,1 C -1,7 C 30,2 km/h
22.11.2015 11:00 4,3 C 67 % 1001,9 hPa 0,0 l/m 14,9 km/h N -1,4 C -1,7 C 34,2 km/h
22.11.2015 12:00 4,8 C 66 % 1002,2 hPa 0,0 l/m 11,5 km/h N -1,0 C 1,0 C 28,1 km/h
22.11.2015 13:00 4,9 C 67 % 1002,8 hPa 0,0 l/m 15,4 km/h N -0,8 C -1,3 C 33,4 km/h
22.11.2015 14:00 4,3 C 72 % 1003,8 hPa 0,0 l/m 12,7 km/h N -0,3 C -0,4 C 29,4 km/h
22.11.2015 15:00 4,0 C 74 % 1004,8 hPa 0,0 l/m 12,0 km/h N -0,3 C -0,3 C 26,1 km/h
22.11.2015 16:00 3,8 C 76 % 1006,1 hPa 0,0 l/m 8,3 km/h N -0,2 C 2,1 C 21,7 km/h
22.11.2015 17:00 3,5 C 77 % 1007,3 hPa 0,0 l/m 8,1 km/h N -0,2 C 2,0 C 20,9 km/h
22.11.2015 18:00 3,6 C 77 % 1008,4 hPa 0,0 l/m 7,1 km/h N -0,2 C 2,8 C 18,1 km/h
22.11.2015 19:00 3,7 C 76 % 1009,7 hPa 0,0 l/m 6,7 km/h N -0,1 C 3,1 C 19,3 km/h
22.11.2015 20:00 3,4 C 78 % 1010,8 hPa 0,0 l/m 6,7 km/h N -0,1 C 2,8 C 16,5 km/h
22.11.2015 21:00 3,3 C 76 % 1011,8 hPa 0,0 l/m 7,4 km/h N -0,6 C 2,3 C 19,7 km/h
22.11.2015 22:00 2,8 C 73 % 1012,6 hPa 0,0 l/m 5,3 km/h N -1,6 C 2,8 C 15,7 km/h
22.11.2015 23:00 2,5 C 72 % 1013,5 hPa 0,0 l/m 3,3 km/h N -2,0 C 2,5 C 13,7 km/h
Min-Datum _ 22.11.15 16.11.15 20.11.15 - 16.11.15 - 22.11.15 22.11.15 16.11.15
_ Min-Zeit 23:15 14:30 22:30 - 17:30 - 23:45 11:15 17:30
Minimum _ 2,4 C 31 % 994,9 hPa - 0,0 km/h - -2,3 C -2,7 C 0,0 km/h
Max-Datum _ 18.11.15 16.11.15 18.11.15 21.11.15 18.11.15 - 18.11.15 16.11.15 18.11.15
_ Max-Zeit 11:45 23:45 20:30 03:00 14:15 - 03:45 15:45 13:00
Maximum _ 19,5 C 83 % 1018,4 hPa 1,3 l/m 24,4 km/h
N
- 10,6 C 18,0 C 59,5 km/h
N
Durchschnitt _ 11,5 C 66 % 1009,0 hPa #11,4 l/m 6,2 km/h N 5,0 C 10,4 C 17,7 km/h